sensor_id;sensor_type;location;lat;lon;timestamp;P1;durP1;ratioP1;P2;durP2;ratioP2
5343;SDS011;2694;48.954;8.928;2023-04-08T00:02:03;8.38;;;5.55;;
5343;SDS011;2694;48.954;8.928;2023-04-08T00:04:30;7.80;;;5.30;;
5343;SDS011;2694;48.954;8.928;2023-04-08T00:06:57;8.05;;;5.20;;
5343;SDS011;2694;48.954;8.928;2023-04-08T00:09:24;10.43;;;5.63;;
5343;SDS011;2694;48.954;8.928;2023-04-08T00:11:52;6.78;;;5.15;;
5343;SDS011;2694;48.954;8.928;2023-04-08T00:14:22;7.30;;;4.90;;
5343;SDS011;2694;48.954;8.928;2023-04-08T00:16:49;8.57;;;5.50;;
5343;SDS011;2694;48.954;8.928;2023-04-08T00:19:16;9.10;;;5.57;;
5343;SDS011;2694;48.954;8.928;2023-04-08T00:21:44;8.48;;;5.60;;
5343;SDS011;2694;48.954;8.928;2023-04-08T00:24:11;8.75;;;5.80;;
5343;SDS011;2694;48.954;8.928;2023-04-08T00:26:38;7.57;;;5.68;;
5343;SDS011;2694;48.954;8.928;2023-04-08T00:29:07;10.02;;;6.32;;
5343;SDS011;2694;48.954;8.928;2023-04-08T00:31:33;8.70;;;6.15;;
5343;SDS011;2694;48.954;8.928;2023-04-08T00:34:00;11.30;;;6.55;;
5343;SDS011;2694;48.954;8.928;2023-04-08T00:36:27;12.07;;;6.57;;
5343;SDS011;2694;48.954;8.928;2023-04-08T00:38:54;11.80;;;7.50;;
5343;SDS011;2694;48.954;8.928;2023-04-08T00:41:21;11.50;;;7.28;;
5343;SDS011;2694;48.954;8.928;2023-04-08T00:43:48;11.38;;;6.95;;
5343;SDS011;2694;48.954;8.928;2023-04-08T00:46:16;14.20;;;7.30;;
5343;SDS011;2694;48.954;8.928;2023-04-08T00:48:43;11.05;;;7.13;;
5343;SDS011;2694;48.954;8.928;2023-04-08T00:51:11;12.65;;;7.97;;
5343;SDS011;2694;48.954;8.928;2023-04-08T00:53:38;11.10;;;7.10;;
5343;SDS011;2694;48.954;8.928;2023-04-08T00:56:04;12.73;;;8.20;;
5343;SDS011;2694;48.954;8.928;2023-04-08T00:58:31;13.82;;;8.73;;
5343;SDS011;2694;48.954;8.928;2023-04-08T01:01:02;15.25;;;9.05;;
5343;SDS011;2694;48.954;8.928;2023-04-08T01:03:36;15.32;;;8.75;;
5343;SDS011;2694;48.954;8.928;2023-04-08T01:06:10;14.05;;;8.50;;
5343;SDS011;2694;48.954;8.928;2023-04-08T01:08:43;14.20;;;7.85;;
5343;SDS011;2694;48.954;8.928;2023-04-08T01:11:11;15.90;;;8.80;;
5343;SDS011;2694;48.954;8.928;2023-04-08T01:13:39;19.17;;;9.07;;
5343;SDS011;2694;48.954;8.928;2023-04-08T01:16:08;15.90;;;8.13;;
5343;SDS011;2694;48.954;8.928;2023-04-08T01:18:39;15.77;;;9.23;;
5343;SDS011;2694;48.954;8.928;2023-04-08T01:21:08;14.38;;;9.05;;
5343;SDS011;2694;48.954;8.928;2023-04-08T01:23:38;15.50;;;8.65;;
5343;SDS011;2694;48.954;8.928;2023-04-08T01:26:11;16.25;;;9.20;;
5343;SDS011;2694;48.954;8.928;2023-04-08T01:28:46;17.10;;;9.45;;
5343;SDS011;2694;48.954;8.928;2023-04-08T01:31:16;19.25;;;8.77;;
5343;SDS011;2694;48.954;8.928;2023-04-08T01:33:44;15.77;;;8.65;;
5343;SDS011;2694;48.954;8.928;2023-04-08T01:36:13;16.98;;;9.50;;
5343;SDS011;2694;48.954;8.928;2023-04-08T01:38:42;19.40;;;9.70;;
5343;SDS011;2694;48.954;8.928;2023-04-08T01:41:11;18.27;;;9.65;;
5343;SDS011;2694;48.954;8.928;2023-04-08T01:43:38;18.63;;;10.13;;
5343;SDS011;2694;48.954;8.928;2023-04-08T01:46:06;19.55;;;8.55;;
5343;SDS011;2694;48.954;8.928;2023-04-08T01:48:35;20.05;;;9.45;;
5343;SDS011;2694;48.954;8.928;2023-04-08T01:51:03;18.67;;;9.85;;
5343;SDS011;2694;48.954;8.928;2023-04-08T01:53:32;17.23;;;9.80;;
5343;SDS011;2694;48.954;8.928;2023-04-08T01:56:00;16.90;;;9.45;;
5343;SDS011;2694;48.954;8.928;2023-04-08T01:58:35;18.90;;;10.13;;
5343;SDS011;2694;48.954;8.928;2023-04-08T02:01:03;18.55;;;9.60;;
5343;SDS011;2694;48.954;8.928;2023-04-08T02:03:35;19.48;;;10.23;;
5343;SDS011;2694;48.954;8.928;2023-04-08T02:06:03;20.67;;;9.30;;
5343;SDS011;2694;48.954;8.928;2023-04-08T02:08:32;17.03;;;8.80;;
5343;SDS011;2694;48.954;8.928;2023-04-08T02:11:00;18.45;;;9.38;;
5343;SDS011;2694;48.954;8.928;2023-04-08T02:13:27;16.30;;;8.40;;
5343;SDS011;2694;48.954;8.928;2023-04-08T02:15:59;18.15;;;9.10;;
5343;SDS011;2694;48.954;8.928;2023-04-08T02:18:31;19.37;;;9.00;;
5343;SDS011;2694;48.954;8.928;2023-04-08T02:21:02;15.13;;;8.50;;
5343;SDS011;2694;48.954;8.928;2023-04-08T02:23:34;17.38;;;8.50;;
5343;SDS011;2694;48.954;8.928;2023-04-08T02:26:03;16.10;;;8.98;;
5343;SDS011;2694;48.954;8.928;2023-04-08T02:28:33;17.27;;;9.07;;
5343;SDS011;2694;48.954;8.928;2023-04-08T02:31:03;15.80;;;8.50;;
5343;SDS011;2694;48.954;8.928;2023-04-08T02:33:33;17.85;;;8.60;;
5343;SDS011;2694;48.954;8.928;2023-04-08T02:36:01;18.05;;;9.68;;
5343;SDS011;2694;48.954;8.928;2023-04-08T02:38:29;18.45;;;8.98;;
5343;SDS011;2694;48.954;8.928;2023-04-08T02:40:56;16.75;;;8.35;;
5343;SDS011;2694;48.954;8.928;2023-04-08T02:43:23;15.27;;;8.60;;
5343;SDS011;2694;48.954;8.928;2023-04-08T02:45:56;16.38;;;8.20;;
5343;SDS011;2694;48.954;8.928;2023-04-08T02:48:25;19.33;;;9.18;;
5343;SDS011;2694;48.954;8.928;2023-04-08T02:50:52;20.50;;;9.18;;
5343;SDS011;2694;48.954;8.928;2023-04-08T02:53:19;19.17;;;9.87;;
5343;SDS011;2694;48.954;8.928;2023-04-08T02:55:47;19.92;;;9.95;;
5343;SDS011;2694;48.954;8.928;2023-04-08T02:58:14;18.00;;;9.60;;
5343;SDS011;2694;48.954;8.928;2023-04-08T03:00:41;18.17;;;9.80;;
5343;SDS011;2694;48.954;8.928;2023-04-08T03:03:08;20.10;;;10.15;;
5343;SDS011;2694;48.954;8.928;2023-04-08T03:05:36;19.63;;;9.93;;
5343;SDS011;2694;48.954;8.928;2023-04-08T03:08:03;18.80;;;10.73;;
5343;SDS011;2694;48.954;8.928;2023-04-08T03:10:30;19.08;;;9.90;;
5343;SDS011;2694;48.954;8.928;2023-04-08T03:12:57;22.63;;;10.77;;
5343;SDS011;2694;48.954;8.928;2023-04-08T03:15:24;20.83;;;10.60;;
5343;SDS011;2694;48.954;8.928;2023-04-08T03:17:51;19.77;;;10.63;;
5343;SDS011;2694;48.954;8.928;2023-04-08T03:20:18;19.15;;;9.93;;
5343;SDS011;2694;48.954;8.928;2023-04-08T03:22:46;23.63;;;11.50;;
5343;SDS011;2694;48.954;8.928;2023-04-08T03:25:13;20.15;;;10.93;;
5343;SDS011;2694;48.954;8.928;2023-04-08T03:27:40;21.00;;;11.40;;
5343;SDS011;2694;48.954;8.928;2023-04-08T03:30:07;19.10;;;11.00;;
5343;SDS011;2694;48.954;8.928;2023-04-08T03:32:34;20.85;;;11.05;;
5343;SDS011;2694;48.954;8.928;2023-04-08T03:35:01;21.02;;;11.65;;
5343;SDS011;2694;48.954;8.928;2023-04-08T03:37:28;25.55;;;12.75;;
5343;SDS011;2694;48.954;8.928;2023-04-08T03:39:56;28.30;;;14.90;;
5343;SDS011;2694;48.954;8.928;2023-04-08T03:42:23;28.23;;;14.07;;
5343;SDS011;2694;48.954;8.928;2023-04-08T03:44:51;24.65;;;13.32;;
5343;SDS011;2694;48.954;8.928;2023-04-08T03:47:18;24.45;;;13.00;;
5343;SDS011;2694;48.954;8.928;2023-04-08T03:49:45;23.80;;;12.25;;
5343;SDS011;2694;48.954;8.928;2023-04-08T03:52:11;27.17;;;13.60;;
5343;SDS011;2694;48.954;8.928;2023-04-08T03:54:38;26.50;;;12.80;;
5343;SDS011;2694;48.954;8.928;2023-04-08T03:57:07;26.40;;;13.87;;
5343;SDS011;2694;48.954;8.928;2023-04-08T03:59:33;22.70;;;12.93;;
5343;SDS011;2694;48.954;8.928;2023-04-08T04:02:01;24.67;;;12.98;;
5343;SDS011;2694;48.954;8.928;2023-04-08T04:04:28;25.70;;;13.00;;
5343;SDS011;2694;48.954;8.928;2023-04-08T04:06:55;24.65;;;13.07;;
5343;SDS011;2694;48.954;8.928;2023-04-08T04:09:22;30.35;;;13.85;;
5343;SDS011;2694;48.954;8.928;2023-04-08T04:11:49;25.52;;;12.98;;
5343;SDS011;2694;48.954;8.928;2023-04-08T04:14:17;26.70;;;13.90;;
5343;SDS011;2694;48.954;8.928;2023-04-08T04:16:44;25.33;;;13.80;;
5343;SDS011;2694;48.954;8.928;2023-04-08T04:19:13;24.90;;;13.43;;
5343;SDS011;2694;48.954;8.928;2023-04-08T04:21:41;24.67;;;13.75;;
5343;SDS011;2694;48.954;8.928;2023-04-08T04:24:08;26.25;;;12.88;;
5343;SDS011;2694;48.954;8.928;2023-04-08T04:26:35;26.97;;;13.73;;
5343;SDS011;2694;48.954;8.928;2023-04-08T04:29:02;24.35;;;13.75;;
5343;SDS011;2694;48.954;8.928;2023-04-08T04:31:30;24.70;;;13.60;;
5343;SDS011;2694;48.954;8.928;2023-04-08T04:33:57;23.77;;;13.60;;
5343;SDS011;2694;48.954;8.928;2023-04-08T04:36:24;26.15;;;14.15;;
5343;SDS011;2694;48.954;8.928;2023-04-08T04:38:51;27.90;;;12.88;;
5343;SDS011;2694;48.954;8.928;2023-04-08T04:41:18;24.02;;;13.10;;
5343;SDS011;2694;48.954;8.928;2023-04-08T04:43:46;23.80;;;12.98;;
5343;SDS011;2694;48.954;8.928;2023-04-08T04:46:15;25.23;;;13.10;;
5343;SDS011;2694;48.954;8.928;2023-04-08T04:48:43;24.77;;;13.70;;
5343;SDS011;2694;48.954;8.928;2023-04-08T04:51:10;25.33;;;13.82;;
5343;SDS011;2694;48.954;8.928;2023-04-08T04:53:37;25.87;;;13.23;;
5343;SDS011;2694;48.954;8.928;2023-04-08T04:56:04;27.48;;;13.88;;
5343;SDS011;2694;48.954;8.928;2023-04-08T04:58:32;21.20;;;11.70;;
5343;SDS011;2694;48.954;8.928;2023-04-08T05:00:58;20.65;;;11.82;;
5343;SDS011;2694;48.954;8.928;2023-04-08T05:03:25;25.02;;;13.30;;
5343;SDS011;2694;48.954;8.928;2023-04-08T05:05:54;24.02;;;13.73;;
5343;SDS011;2694;48.954;8.928;2023-04-08T05:08:21;26.20;;;13.30;;
5343;SDS011;2694;48.954;8.928;2023-04-08T05:10:48;24.92;;;12.95;;
5343;SDS011;2694;48.954;8.928;2023-04-08T05:13:15;25.42;;;13.32;;
5343;SDS011;2694;48.954;8.928;2023-04-08T05:15:42;25.38;;;12.50;;
5343;SDS011;2694;48.954;8.928;2023-04-08T05:18:10;24.73;;;13.18;;
5343;SDS011;2694;48.954;8.928;2023-04-08T05:20:37;23.90;;;12.73;;
5343;SDS011;2694;48.954;8.928;2023-04-08T05:23:05;25.48;;;12.65;;
5343;SDS011;2694;48.954;8.928;2023-04-08T05:25:32;22.45;;;12.07;;
5343;SDS011;2694;48.954;8.928;2023-04-08T05:27:59;23.83;;;13.43;;
5343;SDS011;2694;48.954;8.928;2023-04-08T05:30:26;26.17;;;12.57;;
5343;SDS011;2694;48.954;8.928;2023-04-08T05:32:53;24.63;;;11.80;;
5343;SDS011;2694;48.954;8.928;2023-04-08T05:35:20;24.15;;;13.57;;
5343;SDS011;2694;48.954;8.928;2023-04-08T05:37:47;24.47;;;13.13;;
5343;SDS011;2694;48.954;8.928;2023-04-08T05:40:15;22.05;;;12.48;;
5343;SDS011;2694;48.954;8.928;2023-04-08T05:42:42;25.92;;;13.57;;
5343;SDS011;2694;48.954;8.928;2023-04-08T05:45:09;22.85;;;13.30;;
5343;SDS011;2694;48.954;8.928;2023-04-08T05:47:36;24.03;;;12.83;;
5343;SDS011;2694;48.954;8.928;2023-04-08T05:50:03;26.17;;;13.98;;
5343;SDS011;2694;48.954;8.928;2023-04-08T05:52:31;24.10;;;13.23;;
5343;SDS011;2694;48.954;8.928;2023-04-08T05:54:58;28.73;;;14.47;;
5343;SDS011;2694;48.954;8.928;2023-04-08T05:57:26;23.27;;;12.38;;
5343;SDS011;2694;48.954;8.928;2023-04-08T05:59:53;24.83;;;13.32;;
5343;SDS011;2694;48.954;8.928;2023-04-08T06:02:20;25.40;;;12.55;;
5343;SDS011;2694;48.954;8.928;2023-04-08T06:04:47;25.58;;;12.77;;
5343;SDS011;2694;48.954;8.928;2023-04-08T06:07:14;21.80;;;12.05;;
5343;SDS011;2694;48.954;8.928;2023-04-08T06:09:41;22.58;;;12.52;;
5343;SDS011;2694;48.954;8.928;2023-04-08T06:12:08;24.58;;;12.65;;
5343;SDS011;2694;48.954;8.928;2023-04-08T06:14:36;26.30;;;13.52;;
5343;SDS011;2694;48.954;8.928;2023-04-08T06:17:03;27.38;;;12.57;;
5343;SDS011;2694;48.954;8.928;2023-04-08T06:19:32;26.40;;;14.20;;
5343;SDS011;2694;48.954;8.928;2023-04-08T06:21:59;24.65;;;13.05;;
5343;SDS011;2694;48.954;8.928;2023-04-08T06:24:26;24.65;;;13.02;;
5343;SDS011;2694;48.954;8.928;2023-04-08T06:26:54;23.25;;;12.40;;
5343;SDS011;2694;48.954;8.928;2023-04-08T06:29:21;24.52;;;13.02;;
5343;SDS011;2694;48.954;8.928;2023-04-08T06:31:50;22.58;;;12.23;;
5343;SDS011;2694;48.954;8.928;2023-04-08T06:34:16;21.58;;;11.85;;
5343;SDS011;2694;48.954;8.928;2023-04-08T06:36:43;22.08;;;12.88;;
5343;SDS011;2694;48.954;8.928;2023-04-08T06:39:10;23.98;;;13.07;;
5343;SDS011;2694;48.954;8.928;2023-04-08T06:41:37;26.67;;;12.18;;
5343;SDS011;2694;48.954;8.928;2023-04-08T06:44:04;24.38;;;12.52;;
5343;SDS011;2694;48.954;8.928;2023-04-08T06:46:31;22.92;;;12.65;;
5343;SDS011;2694;48.954;8.928;2023-04-08T06:48:59;25.20;;;13.13;;
5343;SDS011;2694;48.954;8.928;2023-04-08T06:51:28;24.15;;;12.95;;
5343;SDS011;2694;48.954;8.928;2023-04-08T06:53:59;22.45;;;11.88;;
5343;SDS011;2694;48.954;8.928;2023-04-08T06:56:26;24.30;;;12.98;;
5343;SDS011;2694;48.954;8.928;2023-04-08T06:58:53;22.02;;;11.30;;
5343;SDS011;2694;48.954;8.928;2023-04-08T07:01:20;21.58;;;12.18;;
5343;SDS011;2694;48.954;8.928;2023-04-08T07:03:47;20.75;;;11.30;;
5343;SDS011;2694;48.954;8.928;2023-04-08T07:06:16;23.00;;;12.45;;
5343;SDS011;2694;48.954;8.928;2023-04-08T07:08:43;19.17;;;11.00;;
5343;SDS011;2694;48.954;8.928;2023-04-08T07:11:10;22.07;;;10.70;;
5343;SDS011;2694;48.954;8.928;2023-04-08T07:13:37;19.95;;;10.70;;
5343;SDS011;2694;48.954;8.928;2023-04-08T07:16:04;20.08;;;10.95;;
5343;SDS011;2694;48.954;8.928;2023-04-08T07:18:31;21.27;;;10.85;;
5343;SDS011;2694;48.954;8.928;2023-04-08T07:20:58;16.83;;;10.35;;
5343;SDS011;2694;48.954;8.928;2023-04-08T07:23:27;19.42;;;11.00;;
5343;SDS011;2694;48.954;8.928;2023-04-08T07:25:54;17.27;;;10.68;;
5343;SDS011;2694;48.954;8.928;2023-04-08T07:28:21;19.58;;;11.13;;
5343;SDS011;2694;48.954;8.928;2023-04-08T07:30:48;20.73;;;10.90;;
5343;SDS011;2694;48.954;8.928;2023-04-08T07:33:15;19.13;;;10.65;;
5343;SDS011;2694;48.954;8.928;2023-04-08T07:35:42;19.25;;;10.68;;
5343;SDS011;2694;48.954;8.928;2023-04-08T07:38:09;20.95;;;11.07;;
5343;SDS011;2694;48.954;8.928;2023-04-08T07:40:38;19.45;;;10.98;;
5343;SDS011;2694;48.954;8.928;2023-04-08T07:43:05;16.58;;;9.80;;
5343;SDS011;2694;48.954;8.928;2023-04-08T07:45:33;17.20;;;10.10;;
5343;SDS011;2694;48.954;8.928;2023-04-08T07:48:00;17.35;;;10.77;;
5343;SDS011;2694;48.954;8.928;2023-04-08T07:50:27;17.70;;;10.70;;
5343;SDS011;2694;48.954;8.928;2023-04-08T07:52:54;16.58;;;9.95;;
5343;SDS011;2694;48.954;8.928;2023-04-08T07:55:20;15.55;;;9.40;;
5343;SDS011;2694;48.954;8.928;2023-04-08T07:57:49;17.10;;;9.50;;
5343;SDS011;2694;48.954;8.928;2023-04-08T08:00:16;16.10;;;10.15;;
5343;SDS011;2694;48.954;8.928;2023-04-08T08:02:45;18.83;;;10.48;;
5343;SDS011;2694;48.954;8.928;2023-04-08T08:05:13;16.40;;;10.17;;
5343;SDS011;2694;48.954;8.928;2023-04-08T08:07:40;14.88;;;9.30;;
5343;SDS011;2694;48.954;8.928;2023-04-08T08:10:07;17.20;;;9.90;;
5343;SDS011;2694;48.954;8.928;2023-04-08T08:12:35;14.40;;;8.85;;
5343;SDS011;2694;48.954;8.928;2023-04-08T08:15:03;17.25;;;10.27;;
5343;SDS011;2694;48.954;8.928;2023-04-08T08:17:31;16.27;;;10.70;;
5343;SDS011;2694;48.954;8.928;2023-04-08T08:19:58;17.52;;;9.80;;
5343;SDS011;2694;48.954;8.928;2023-04-08T08:22:25;17.42;;;10.32;;
5343;SDS011;2694;48.954;8.928;2023-04-08T08:24:54;17.43;;;10.97;;
5343;SDS011;2694;48.954;8.928;2023-04-08T08:27:21;14.38;;;9.30;;
5343;SDS011;2694;48.954;8.928;2023-04-08T08:29:48;15.13;;;8.95;;
5343;SDS011;2694;48.954;8.928;2023-04-08T08:32:17;14.88;;;9.23;;
5343;SDS011;2694;48.954;8.928;2023-04-08T08:34:44;16.25;;;9.70;;
5343;SDS011;2694;48.954;8.928;2023-04-08T08:37:11;13.88;;;8.85;;
5343;SDS011;2694;48.954;8.928;2023-04-08T08:39:38;12.43;;;8.18;;
5343;SDS011;2694;48.954;8.928;2023-04-08T08:42:05;15.05;;;9.00;;
5343;SDS011;2694;48.954;8.928;2023-04-08T08:44:33;14.10;;;8.30;;
5343;SDS011;2694;48.954;8.928;2023-04-08T08:47:00;12.60;;;8.37;;
5343;SDS011;2694;48.954;8.928;2023-04-08T08:49:28;13.98;;;9.43;;
5343;SDS011;2694;48.954;8.928;2023-04-08T08:51:55;13.85;;;9.25;;
5343;SDS011;2694;48.954;8.928;2023-04-08T08:54:24;13.83;;;9.03;;
5343;SDS011;2694;48.954;8.928;2023-04-08T08:56:51;14.13;;;8.68;;
5343;SDS011;2694;48.954;8.928;2023-04-08T08:59:18;14.05;;;9.20;;
5343;SDS011;2694;48.954;8.928;2023-04-08T09:01:45;12.95;;;8.52;;
5343;SDS011;2694;48.954;8.928;2023-04-08T09:04:12;13.32;;;8.20;;
5343;SDS011;2694;48.954;8.928;2023-04-08T09:06:44;13.75;;;9.10;;
5343;SDS011;2694;48.954;8.928;2023-04-08T09:09:12;15.63;;;9.93;;
5343;SDS011;2694;48.954;8.928;2023-04-08T09:11:40;12.45;;;8.05;;
5343;SDS011;2694;48.954;8.928;2023-04-08T09:14:20;13.43;;;8.65;;
5343;SDS011;2694;48.954;8.928;2023-04-08T09:16:47;12.00;;;8.10;;
5343;SDS011;2694;48.954;8.928;2023-04-08T09:19:14;11.93;;;8.53;;
5343;SDS011;2694;48.954;8.928;2023-04-08T09:21:41;12.73;;;8.20;;
5343;SDS011;2694;48.954;8.928;2023-04-08T09:24:26;13.85;;;9.13;;
5343;SDS011;2694;48.954;8.928;2023-04-08T09:26:54;12.70;;;8.60;;
5343;SDS011;2694;48.954;8.928;2023-04-08T09:29:22;14.60;;;8.40;;
5343;SDS011;2694;48.954;8.928;2023-04-08T09:31:52;12.70;;;8.57;;
5343;SDS011;2694;48.954;8.928;2023-04-08T09:34:19;11.20;;;7.97;;
5343;SDS011;2694;48.954;8.928;2023-04-08T09:36:48;14.37;;;9.17;;
5343;SDS011;2694;48.954;8.928;2023-04-08T09:39:15;12.60;;;8.68;;
5343;SDS011;2694;48.954;8.928;2023-04-08T09:41:43;14.15;;;9.18;;
5343;SDS011;2694;48.954;8.928;2023-04-08T09:44:10;13.60;;;8.23;;
5343;SDS011;2694;48.954;8.928;2023-04-08T09:46:38;13.20;;;8.07;;
5343;SDS011;2694;48.954;8.928;2023-04-08T09:49:23;14.63;;;8.70;;
5343;SDS011;2694;48.954;8.928;2023-04-08T09:51:56;12.10;;;7.90;;
5343;SDS011;2694;48.954;8.928;2023-04-08T09:54:37;14.45;;;7.50;;
5343;SDS011;2694;48.954;8.928;2023-04-08T09:57:09;12.60;;;8.15;;
5343;SDS011;2694;48.954;8.928;2023-04-08T09:59:44;12.32;;;7.90;;
5343;SDS011;2694;48.954;8.928;2023-04-08T10:02:18;11.20;;;7.47;;
5343;SDS011;2694;48.954;8.928;2023-04-08T10:04:54;13.05;;;8.00;;
5343;SDS011;2694;48.954;8.928;2023-04-08T10:07:26;12.32;;;7.60;;
5343;SDS011;2694;48.954;8.928;2023-04-08T10:09:53;14.45;;;7.38;;
5343;SDS011;2694;48.954;8.928;2023-04-08T10:12:20;13.40;;;7.63;;
5343;SDS011;2694;48.954;8.928;2023-04-08T10:17:48;11.60;;;7.13;;
5343;SDS011;2694;48.954;8.928;2023-04-08T10:23:11;12.48;;;7.80;;
5343;SDS011;2694;48.954;8.928;2023-04-08T10:25:39;12.95;;;7.68;;
5343;SDS011;2694;48.954;8.928;2023-04-08T10:28:24;14.25;;;7.68;;
5343;SDS011;2694;48.954;8.928;2023-04-08T10:30:52;12.60;;;7.53;;
5343;SDS011;2694;48.954;8.928;2023-04-08T10:33:21;13.82;;;7.80;;
5343;SDS011;2694;48.954;8.928;2023-04-08T10:35:51;11.55;;;7.05;;
5343;SDS011;2694;48.954;8.928;2023-04-08T10:38:21;13.20;;;7.60;;
5343;SDS011;2694;48.954;8.928;2023-04-08T10:40:48;10.88;;;7.25;;
5343;SDS011;2694;48.954;8.928;2023-04-08T10:43:15;13.45;;;7.65;;
5343;SDS011;2694;48.954;8.928;2023-04-08T10:45:42;13.13;;;7.80;;
5343;SDS011;2694;48.954;8.928;2023-04-08T10:48:14;12.60;;;7.38;;
5343;SDS011;2694;48.954;8.928;2023-04-08T10:50:43;12.90;;;7.10;;
5343;SDS011;2694;48.954;8.928;2023-04-08T10:53:26;13.13;;;7.88;;
5343;SDS011;2694;48.954;8.928;2023-04-08T10:55:54;12.60;;;8.20;;
5343;SDS011;2694;48.954;8.928;2023-04-08T10:58:29;12.68;;;7.57;;
5343;SDS011;2694;48.954;8.928;2023-04-08T11:01:01;11.35;;;7.32;;
5343;SDS011;2694;48.954;8.928;2023-04-08T11:03:30;12.65;;;7.90;;
5343;SDS011;2694;48.954;8.928;2023-04-08T11:05:58;11.93;;;8.00;;
5343;SDS011;2694;48.954;8.928;2023-04-08T11:08:27;11.68;;;7.82;;
5343;SDS011;2694;48.954;8.928;2023-04-08T11:10:54;12.93;;;7.70;;
5343;SDS011;2694;48.954;8.928;2023-04-08T11:13:23;10.20;;;7.57;;
5343;SDS011;2694;48.954;8.928;2023-04-08T11:15:51;13.70;;;7.95;;
5343;SDS011;2694;48.954;8.928;2023-04-08T11:18:18;11.13;;;7.05;;
5343;SDS011;2694;48.954;8.928;2023-04-08T11:20:46;13.10;;;7.75;;
5343;SDS011;2694;48.954;8.928;2023-04-08T11:23:15;10.48;;;7.00;;
5343;SDS011;2694;48.954;8.928;2023-04-08T11:25:44;10.05;;;7.10;;
5343;SDS011;2694;48.954;8.928;2023-04-08T11:28:12;11.40;;;7.85;;
5343;SDS011;2694;48.954;8.928;2023-04-08T11:30:39;9.55;;;6.70;;
5343;SDS011;2694;48.954;8.928;2023-04-08T11:33:07;10.63;;;7.70;;
5343;SDS011;2694;48.954;8.928;2023-04-08T11:35:38;11.40;;;7.22;;
5343;SDS011;2694;48.954;8.928;2023-04-08T11:38:05;12.13;;;6.28;;
5343;SDS011;2694;48.954;8.928;2023-04-08T11:40:33;11.13;;;6.90;;
5343;SDS011;2694;48.954;8.928;2023-04-08T11:43:09;11.55;;;7.45;;
5343;SDS011;2694;48.954;8.928;2023-04-08T11:45:37;12.02;;;6.72;;
5343;SDS011;2694;48.954;8.928;2023-04-08T11:48:07;12.82;;;7.60;;
5343;SDS011;2694;48.954;8.928;2023-04-08T11:50:35;9.57;;;6.68;;
5343;SDS011;2694;48.954;8.928;2023-04-08T11:53:02;9.70;;;7.10;;
5343;SDS011;2694;48.954;8.928;2023-04-08T11:55:29;10.25;;;6.80;;
5343;SDS011;2694;48.954;8.928;2023-04-08T11:58:00;9.05;;;6.40;;
5343;SDS011;2694;48.954;8.928;2023-04-08T12:00:31;18.17;;;6.77;;
5343;SDS011;2694;48.954;8.928;2023-04-08T12:02:58;9.52;;;6.50;;
5343;SDS011;2694;48.954;8.928;2023-04-08T12:05:25;9.30;;;6.73;;
5343;SDS011;2694;48.954;8.928;2023-04-08T12:07:52;14.13;;;7.18;;
5343;SDS011;2694;48.954;8.928;2023-04-08T12:10:19;14.43;;;8.75;;
5343;SDS011;2694;48.954;8.928;2023-04-08T12:12:46;9.68;;;6.88;;
5343;SDS011;2694;48.954;8.928;2023-04-08T12:15:13;17.52;;;7.50;;
5343;SDS011;2694;48.954;8.928;2023-04-08T12:17:42;11.05;;;6.70;;
5343;SDS011;2694;48.954;8.928;2023-04-08T12:20:09;11.63;;;6.10;;
5343;SDS011;2694;48.954;8.928;2023-04-08T12:22:37;17.67;;;6.85;;
5343;SDS011;2694;48.954;8.928;2023-04-08T12:25:04;11.23;;;7.00;;
5343;SDS011;2694;48.954;8.928;2023-04-08T12:27:32;9.93;;;6.95;;
5343;SDS011;2694;48.954;8.928;2023-04-08T12:29:59;15.00;;;7.63;;
5343;SDS011;2694;48.954;8.928;2023-04-08T12:32:26;38.47;;;10.10;;
5343;SDS011;2694;48.954;8.928;2023-04-08T12:34:54;15.05;;;7.22;;
5343;SDS011;2694;48.954;8.928;2023-04-08T12:37:21;11.05;;;6.20;;
5343;SDS011;2694;48.954;8.928;2023-04-08T12:39:48;10.77;;;6.78;;
5343;SDS011;2694;48.954;8.928;2023-04-08T12:42:15;11.20;;;7.28;;
5343;SDS011;2694;48.954;8.928;2023-04-08T12:44:42;11.88;;;7.30;;
5343;SDS011;2694;48.954;8.928;2023-04-08T12:47:09;10.55;;;6.70;;
5343;SDS011;2694;48.954;8.928;2023-04-08T12:49:36;10.77;;;6.80;;
5343;SDS011;2694;48.954;8.928;2023-04-08T12:52:04;9.52;;;6.63;;
5343;SDS011;2694;48.954;8.928;2023-04-08T12:54:31;11.30;;;7.17;;
5343;SDS011;2694;48.954;8.928;2023-04-08T12:56:58;10.02;;;6.65;;
5343;SDS011;2694;48.954;8.928;2023-04-08T12:59:25;12.95;;;7.30;;
5343;SDS011;2694;48.954;8.928;2023-04-08T13:01:52;11.25;;;7.20;;
5343;SDS011;2694;48.954;8.928;2023-04-08T13:04:19;10.85;;;7.40;;
5343;SDS011;2694;48.954;8.928;2023-04-08T13:06:46;12.23;;;6.78;;
5343;SDS011;2694;48.954;8.928;2023-04-08T13:09:14;9.80;;;7.20;;
5343;SDS011;2694;48.954;8.928;2023-04-08T13:11:41;10.83;;;7.40;;
5343;SDS011;2694;48.954;8.928;2023-04-08T13:14:08;13.95;;;7.50;;
5343;SDS011;2694;48.954;8.928;2023-04-08T13:16:36;11.75;;;7.68;;
5343;SDS011;2694;48.954;8.928;2023-04-08T13:19:03;11.87;;;7.60;;
5343;SDS011;2694;48.954;8.928;2023-04-08T13:21:30;10.75;;;7.53;;
5343;SDS011;2694;48.954;8.928;2023-04-08T13:23:57;11.90;;;7.32;;
5343;SDS011;2694;48.954;8.928;2023-04-08T13:26:25;11.90;;;7.80;;
5343;SDS011;2694;48.954;8.928;2023-04-08T13:28:52;11.15;;;7.18;;
5343;SDS011;2694;48.954;8.928;2023-04-08T13:31:22;12.48;;;7.15;;
5343;SDS011;2694;48.954;8.928;2023-04-08T13:33:49;10.70;;;7.50;;
5343;SDS011;2694;48.954;8.928;2023-04-08T13:36:16;11.23;;;7.63;;
5343;SDS011;2694;48.954;8.928;2023-04-08T13:38:43;9.20;;;6.70;;
5343;SDS011;2694;48.954;8.928;2023-04-08T13:41:10;10.75;;;7.05;;
5343;SDS011;2694;48.954;8.928;2023-04-08T13:43:38;11.30;;;7.40;;
5343;SDS011;2694;48.954;8.928;2023-04-08T13:46:05;9.48;;;6.35;;
5343;SDS011;2694;48.954;8.928;2023-04-08T13:48:32;9.18;;;6.80;;
5343;SDS011;2694;48.954;8.928;2023-04-08T13:50:59;9.83;;;6.40;;
5343;SDS011;2694;48.954;8.928;2023-04-08T13:53:26;10.23;;;6.65;;
5343;SDS011;2694;48.954;8.928;2023-04-08T13:55:53;11.98;;;6.80;;
5343;SDS011;2694;48.954;8.928;2023-04-08T13:58:21;10.43;;;6.37;;
5343;SDS011;2694;48.954;8.928;2023-04-08T14:00:49;11.85;;;7.20;;
5343;SDS011;2694;48.954;8.928;2023-04-08T14:03:16;10.15;;;6.72;;
5343;SDS011;2694;48.954;8.928;2023-04-08T14:05:43;9.65;;;6.47;;
5343;SDS011;2694;48.954;8.928;2023-04-08T14:08:10;11.95;;;6.97;;
5343;SDS011;2694;48.954;8.928;2023-04-08T14:10:38;10.63;;;6.63;;
5343;SDS011;2694;48.954;8.928;2023-04-08T14:13:05;10.43;;;6.68;;
5343;SDS011;2694;48.954;8.928;2023-04-08T14:15:32;14.50;;;6.53;;
5343;SDS011;2694;48.954;8.928;2023-04-08T14:18:01;10.87;;;6.80;;
5343;SDS011;2694;48.954;8.928;2023-04-08T14:20:28;9.57;;;6.53;;
5343;SDS011;2694;48.954;8.928;2023-04-08T14:22:55;9.55;;;6.32;;
5343;SDS011;2694;48.954;8.928;2023-04-08T14:25:22;10.50;;;7.13;;
5343;SDS011;2694;48.954;8.928;2023-04-08T14:27:49;8.23;;;6.20;;
5343;SDS011;2694;48.954;8.928;2023-04-08T14:30:17;10.65;;;6.13;;
5343;SDS011;2694;48.954;8.928;2023-04-08T14:32:44;12.88;;;6.05;;
5343;SDS011;2694;48.954;8.928;2023-04-08T14:35:12;12.50;;;7.25;;
5343;SDS011;2694;48.954;8.928;2023-04-08T14:37:39;10.10;;;6.75;;
5343;SDS011;2694;48.954;8.928;2023-04-08T14:40:06;9.73;;;6.22;;
5343;SDS011;2694;48.954;8.928;2023-04-08T14:42:34;11.13;;;6.60;;
5343;SDS011;2694;48.954;8.928;2023-04-08T14:45:01;11.80;;;6.65;;
5343;SDS011;2694;48.954;8.928;2023-04-08T14:47:28;9.20;;;5.70;;
5343;SDS011;2694;48.954;8.928;2023-04-08T14:49:55;9.98;;;6.35;;
5343;SDS011;2694;48.954;8.928;2023-04-08T14:52:23;10.20;;;6.50;;
5343;SDS011;2694;48.954;8.928;2023-04-08T14:54:50;10.57;;;6.60;;
5343;SDS011;2694;48.954;8.928;2023-04-08T14:57:17;10.48;;;6.30;;
5343;SDS011;2694;48.954;8.928;2023-04-08T14:59:44;12.68;;;6.38;;
5343;SDS011;2694;48.954;8.928;2023-04-08T15:02:12;9.27;;;6.85;;
5343;SDS011;2694;48.954;8.928;2023-04-08T15:04:39;12.95;;;6.53;;
5343;SDS011;2694;48.954;8.928;2023-04-08T15:07:06;9.38;;;6.30;;
5343;SDS011;2694;48.954;8.928;2023-04-08T15:09:34;9.30;;;6.65;;